Time;durP1;ratioP1;P1;durP2;ratioP2;P2;SDS_P1;SDS_P2;PMS_P1;PMS_P2;Temp;Humidity;BMP_temperature;BMP_pressure;BME280_temperature;BME280_humidity;BME280_pressure;Samples;Min_cycle;Max_cycle;Signal;HPM_P1;HPM_P2
2022/06/22 00:02:24;;;;;;;4.13;2.85;;;;;;;22.15;61.13;97526.94;5035321;28;20815;-69
2022/06/22 00:04:55;;;;;;;5.70;3.22;;;;;;;22.17;61.95;97524.72;5035818;28;20197;-69
2022/06/22 00:07:26;;;;;;;5.45;3.50;;;;;;;22.14;62.00;97533.44;5017920;28;20282;-69
2022/06/22 00:10:00;;;;;;;4.60;3.20;;;;;;;22.13;62.68;97527.25;5035143;28;20226;-69
2022/06/22 00:12:31;;;;;;;4.75;3.20;;;;;;;22.11;62.52;97520.53;5034868;28;20232;-68
2022/06/22 00:15:00;;;;;;;3.78;3.20;;;;;;;22.10;62.79;97510.78;5035143;28;20233;-69
2022/06/22 00:17:33;;;;;;;7.05;3.40;;;;;;;21.99;63.11;97504.00;5035036;28;20206;-69
2022/06/22 00:20:05;;;;;;;4.43;3.45;;;;;;;21.94;63.54;97499.53;5017482;28;20281;-69
2022/06/22 00:22:45;;;;;;;4.13;3.20;;;;;;;21.90;64.41;97486.88;5034750;28;20197;-69
2022/06/22 00:25:21;;;;;;;6.40;3.80;;;;;;;21.90;63.05;97474.16;5034990;28;20193;-68
2022/06/22 00:27:47;;;;;;;4.43;3.33;;;;;;;21.92;62.64;97465.72;5034420;28;20575;-69
2022/06/22 00:30:22;;;;;;;4.17;3.30;;;;;;;21.86;62.83;97462.34;5034814;28;20210;-68
2022/06/22 00:33:12;;;;;;;3.93;3.20;;;;;;;21.85;62.73;97457.25;5017219;28;20209;-69
2022/06/22 00:35:50;;;;;;;6.40;3.77;;;;;;;21.73;64.33;97446.94;5034457;28;20192;-69
2022/06/22 00:38:22;;;;;;;7.73;3.50;;;;;;;21.71;64.04;97453.78;5034601;28;20316;-69
2022/06/22 00:40:54;;;;;;;5.63;3.47;;;;;;;21.72;64.61;97449.94;5034310;28;20747;-69
2022/06/22 00:43:21;;;;;;;7.97;3.77;;;;;;;21.72;64.48;97455.38;5034593;28;20194;-69
2022/06/22 00:45:49;;;;;;;4.27;3.33;;;;;;;21.70;65.28;97442.13;5034404;28;20209;-69
2022/06/22 00:48:36;;;;;;;6.93;3.73;;;;;;;21.67;65.42;97458.16;5034009;28;20229;-69
2022/06/22 00:51:06;;;;;;;4.53;3.57;;;;;;;21.67;65.55;97458.97;5034469;28;20186;-69
2022/06/22 00:53:43;;;;;;;5.00;3.53;;;;;;;21.63;65.72;97466.09;5034108;28;20557;-69
2022/06/22 00:56:19;;;;;;;4.43;3.60;;;;;;;21.55;66.43;97471.38;5034298;28;20190;-69
2022/06/22 00:59:11;;;;;;;3.80;3.40;;;;;;;21.56;67.33;97484.63;5034696;28;20570;-69
2022/06/22 01:02:02;;;;;;;6.00;4.00;;;;;;;21.49;67.93;97497.75;5016762;28;20201;-69
2022/06/22 01:04:41;;;;;;;4.20;3.80;;;;;;;21.50;68.20;97491.25;5034052;28;20547;-69
2022/06/22 01:07:38;;;;;;;4.40;3.80;;;;;;;21.49;67.81;97494.25;5016623;28;20569;-69
2022/06/22 01:10:30;;;;;;;5.03;3.80;;;;;;;21.46;68.56;97490.25;5016661;28;20198;-69
2022/06/22 01:13:13;;;;;;;5.77;3.90;;;;;;;21.49;68.26;97494.25;5016578;28;20186;-69
2022/06/22 01:15:46;;;;;;;4.50;3.60;;;;;;;21.45;68.45;97499.47;5016648;28;20194;-68
2022/06/22 01:18:21;;;;;;;4.93;3.97;;;;;;;21.40;68.97;97509.56;5033902;28;20321;-69
2022/06/22 01:21:08;;;;;;;5.57;4.27;;;;;;;21.42;69.11;97504.66;5033802;28;20204;-69
2022/06/22 01:24:03;;;;;;;5.10;3.70;;;;;;;21.46;69.28;97514.59;5016552;28;20194;-69
2022/06/22 01:26:48;;;;;;;4.23;3.60;;;;;;;21.44;69.44;97516.78;5033611;28;20687;-69
2022/06/22 01:29:19;;;;;;;5.60;4.50;;;;;;;21.46;70.04;97511.88;5033284;28;20755;-69
2022/06/22 01:31:56;;;;;;;4.77;3.80;;;;;;;21.49;69.92;97515.88;5016590;28;20225;-69
2022/06/22 01:34:25;;;;;;;12.90;4.43;;;;;;;21.53;70.97;97516.88;5033688;28;20197;-69
2022/06/22 01:36:52;;;;;;;6.77;4.40;;;;;;;21.57;70.93;97507.06;5033389;28;20209;-70
2022/06/22 01:39:18;;;;;;;5.53;4.33;;;;;;;21.64;71.75;97502.84;5033530;28;20231;-69
2022/06/22 01:41:48;;;;;;;6.33;4.60;;;;;;;21.55;72.83;97498.44;5033287;28;20300;-69
2022/06/22 01:44:22;;;;;;;5.93;4.83;;;;;;;21.52;73.84;97504.47;5033582;28;20206;-69
2022/06/22 01:47:20;;;;;;;6.87;5.07;;;;;;;21.43;74.70;97512.47;5033325;28;20276;-69
2022/06/22 01:49:53;;;;;;;7.83;5.20;;;;;;;21.39;74.99;97505.28;5033359;28;20609;-69
2022/06/22 01:52:46;;;;;;;5.47;4.97;;;;;;;21.32;75.87;97497.56;5033763;28;20535;-69
2022/06/22 01:55:36;;;;;;;5.77;5.10;;;;;;;21.34;75.74;97498.06;5015989;28;20186;-68
2022/06/22 01:58:25;;;;;;;6.03;5.30;;;;;;;21.30;75.78;97513.28;5033440;28;20324;-69
2022/06/22 02:01:14;;;;;;;6.50;5.90;;;;;;;21.35;75.81;97515.09;5036532;28;20201;-69
2022/06/22 02:04:10;;;;;;;8.57;5.40;;;;;;;21.35;76.43;97505.06;5037649;28;20190;-69
2022/06/22 02:09:38;;;;;;;6.73;5.30;;;;;;;21.36;76.39;97489.63;5037473;28;20367;-68
2022/06/22 02:12:20;;;;;;;6.60;5.50;;;;;;;21.31;76.68;97481.63;5037470;28;20228;-68
2022/06/22 02:14:53;;;;;;;6.00;5.40;;;;;;;21.36;76.75;97478.81;5037124;28;20580;-69
2022/06/22 02:17:25;;;;;;;5.57;5.07;;;;;;;21.34;76.69;97473.72;5038178;28;20198;-68
2022/06/22 02:20:25;;;;;;;6.20;5.60;;;;;;;21.34;76.54;97471.00;5020062;28;20261;-69
2022/06/22 02:22:56;;;;;;;7.37;5.93;;;;;;;21.39;76.92;97472.81;5019761;28;20244;-69
2022/06/22 02:25:24;;;;;;;6.90;5.57;;;;;;;21.40;77.13;97485.25;5036849;28;20552;-69
2022/06/22 02:27:51;;;;;;;6.30;5.70;;;;;;;21.42;76.89;97483.00;5019118;28;20222;-68
2022/06/22 02:30:17;;;;;;;8.70;5.80;;;;;;;21.48;76.50;97482.63;5037074;28;20221;-69
2022/06/22 02:32:45;;;;;;;6.30;5.40;;;;;;;21.57;76.22;97482.72;5037068;28;20284;-69
2022/06/22 02:35:15;;;;;;;7.03;5.23;;;;;;;21.48;77.33;97479.13;5036929;28;20206;-68
2022/06/22 02:38:05;;;;;;;6.00;5.40;;;;;;;21.55;77.96;97479.50;5036855;28;20268;-68
2022/06/22 02:44:29;;;;;;;8.07;5.70;;;;;;;21.52;78.45;97499.84;5036922;28;20281;-69
2022/06/22 02:46:15;;;;;;;6.23;5.73;;;;;;;21.46;78.17;97501.06;5036519;28;20205;-69
2022/06/22 02:48:45;;;;;;;7.73;6.30;;;;;;;21.37;78.98;97481.22;5036367;28;20237;-68
2022/06/22 02:51:21;;;;;;;6.73;6.13;;;;;;;21.32;79.14;97473.22;5036609;28;20212;-68
2022/06/22 02:53:49;;;;;;;6.60;6.00;;;;;;;21.28;81.48;97482.22;5036193;28;20272;-69
2022/06/22 02:56:24;;;;;;;8.07;6.07;;;;;;;21.18;83.35;97501.34;5036576;28;20206;-69
2022/06/22 02:58:50;;;;;;;7.10;6.50;;;;;;;21.08;85.35;97505.06;5036442;28;20272;-69
2022/06/22 03:01:20;;;;;;;9.87;6.53;;;;;;;21.02;85.16;97491.94;5036031;28;20202;-69
2022/06/22 03:03:52;;;;;;;7.07;6.23;;;;;;;21.13;84.27;97487.94;5036065;28;20293;-69
2022/06/22 03:06:21;;;;;;;6.77;5.90;;;;;;;20.89;86.76;97490.78;5035897;28;20289;-69
2022/06/22 03:08:49;;;;;;;7.50;6.63;;;;;;;20.89;86.89;97490.78;5035830;28;20719;-69
2022/06/22 03:11:16;;;;;;;8.30;6.27;;;;;;;20.80;89.02;97489.88;5035565;28;20206;-69
2022/06/22 03:13:52;;;;;;;7.13;6.43;;;;;;;20.82;90.23;97489.56;5018636;28;20580;-69
2022/06/22 03:16:32;;;;;;;7.00;6.30;;;;;;;20.80;89.73;97480.97;5019425;28;20312;-69
2022/06/22 03:19:03;;;;;;;7.47;6.73;;;;;;;20.80;90.68;97480.97;5036010;28;20239;-68
2022/06/22 03:21:31;;;;;;;7.53;6.67;;;;;;;20.79;91.19;97477.47;5035906;28;20193;-69
2022/06/22 03:24:32;;;;;;;7.23;6.50;;;;;;;20.79;90.92;97474.75;5036061;28;20206;-69
2022/06/22 03:27:12;;;;;;;6.80;6.30;;;;;;;20.73;91.60;97469.75;4974816;28;20298;-69
2022/06/22 03:29:45;;;;;;;7.13;6.33;;;;;;;20.80;90.41;97478.28;5028658;28;20332;-68
2022/06/22 03:32:20;;;;;;;9.27;6.40;;;;;;;20.77;89.98;97482.38;5036334;28;20285;-68
2022/06/22 03:34:51;;;;;;;8.83;6.47;;;;;;;20.78;90.42;97477.75;5035949;28;20201;-69
2022/06/22 03:37:25;;;;;;;7.10;6.40;;;;;;;20.76;90.29;97469.16;5018234;28;20660;-69
2022/06/22 03:39:57;;;;;;;7.87;6.87;;;;;;;20.70;89.99;97470.34;5035144;28;20221;-68
2022/06/22 03:42:29;;;;;;;7.43;6.83;;;;;;;20.73;89.46;97472.44;5018031;28;20277;-69
2022/06/22 03:45:05;;;;;;;7.63;6.83;;;;;;;20.69;90.04;97474.13;5035206;28;20191;-68
2022/06/22 03:47:54;;;;;;;7.47;6.77;;;;;;;20.68;90.11;97477.94;5035344;28;20208;-69
2022/06/22 03:50:30;;;;;;;7.87;6.70;;;;;;;20.65;90.56;97489.31;5035281;28;20305;-69
2022/06/22 03:53:19;;;;;;;7.80;6.50;;;;;;;20.65;89.44;97494.72;5018196;28;20194;-68
2022/06/22 03:55:50;;;;;;;7.23;6.53;;;;;;;20.65;90.25;97495.53;5035428;28;20197;-69
2022/06/22 03:58:20;;;;;;;7.57;6.87;;;;;;;20.68;90.18;97492.25;5035256;28;20689;-68
2022/06/22 04:00:48;;;;;;;7.67;6.77;;;;;;;20.72;88.83;97495.97;5035275;28;20210;-69
2022/06/22 04:03:18;;;;;;;9.10;6.50;;;;;;;20.79;88.89;97499.06;5017483;28;20300;-69
2022/06/22 04:05:54;;;;;;;8.53;7.00;;;;;;;20.86;86.73;97502.19;5034366;28;20223;-69
2022/06/22 04:08:40;;;;;;;7.63;6.97;;;;;;;20.90;84.87;97507.81;5034258;28;20595;-69
2022/06/22 04:11:25;;;;;;;7.00;6.30;;;;;;;20.88;82.97;97502.69;5035062;28;20197;-68
2022/06/22 04:14:00;;;;;;;7.50;6.40;;;;;;;20.86;82.12;97495.97;5017556;28;20190;-69
2022/06/22 04:16:33;;;;;;;7.30;6.60;;;;;;;20.91;81.76;97495.91;5017936;28;20190;-69
2022/06/22 04:19:10;;;;;;;7.23;6.20;;;;;;;20.96;82.96;97504.75;5034453;28;20222;-68
2022/06/22 04:21:41;;;;;;;7.37;6.40;;;;;;;21.04;82.91;97505.94;5016550;28;20661;-69
2022/06/22 04:24:42;;;;;;;7.80;6.97;;;;;;;21.10;81.65;97502.03;5035140;28;20534;-69
2022/06/22 04:27:25;;;;;;;7.20;6.50;;;;;;;21.12;80.95;97497.16;5026444;28;20205;-69
2022/06/22 04:30:07;;;;;;;7.00;6.27;;;;;;;21.08;81.92;97496.97;5034118;28;20710;-69
2022/06/22 04:32:52;;;;;;;7.97;6.50;;;;;;;21.07;82.39;97494.56;5034509;28;20280;-68
2022/06/22 04:35:39;;;;;;;7.50;6.30;;;;;;;21.07;82.90;97505.38;5034728;28;20197;-69
2022/06/22 04:38:27;;;;;;;7.63;6.23;;;;;;;21.15;78.42;97507.34;5016441;28;20226;-69
2022/06/22 04:40:54;;;;;;;6.43;5.70;;;;;;;21.18;78.43;97509.47;5034555;28;20186;-68
2022/06/22 04:43:21;;;;;;;6.87;6.03;;;;;;;21.15;78.20;97510.06;5033781;28;20213;-69
2022/06/22 04:45:49;;;;;;;7.90;5.97;;;;;;;21.33;77.43;97515.38;5033690;28;20296;-68
2022/06/22 04:48:26;;;;;;;6.87;6.03;;;;;;;21.39;77.05;97511.47;5033537;28;20299;-68
2022/06/22 04:50:58;;;;;;;6.40;5.80;;;;;;;21.29;77.79;97513.59;5016391;28;20186;-69
2022/06/22 04:53:31;;;;;;;6.80;5.93;;;;;;;21.25;79.38;97526.09;5033969;28;20237;-69
2022/06/22 04:56:01;;;;;;;7.27;6.23;;;;;;;21.24;78.98;97519.88;5016413;28;20213;-68
2022/06/22 04:58:43;;;;;;;7.20;6.20;;;;;;;21.24;80.13;97524.47;5034110;28;20268;-68
2022/06/22 05:01:16;;;;;;;8.03;5.87;;;;;;;21.36;78.42;97527.50;5033230;28;20285;-68
2022/06/22 05:03:43;;;;;;;7.67;5.50;;;;;;;21.37;77.44;97534.50;5033619;28;20655;-68
2022/06/22 05:06:19;;;;;;;7.57;5.63;;;;;;;21.39;76.00;97522.28;5033645;28;20213;-68
2022/06/22 05:08:58;;;;;;;7.57;5.90;;;;;;;21.34;76.81;97519.69;5033447;28;20230;-68
2022/06/22 05:11:36;;;;;;;6.80;5.90;;;;;;;21.37;76.62;97518.28;5033625;28;20284;-68
2022/06/22 05:14:11;;;;;;;8.53;6.10;;;;;;;21.40;76.86;97523.91;5033388;28;20201;-68
2022/06/22 05:16:38;;;;;;;6.73;6.03;;;;;;;21.42;77.70;97521.69;5032864;28;20190;-68
2022/06/22 05:19:04;;;;;;;7.07;6.10;;;;;;;21.41;76.53;97516.56;5033213;28;20244;-68
2022/06/22 05:21:41;;;;;;;8.53;6.03;;;;;;;21.47;75.60;97520.81;5033161;28;20571;-68
2022/06/22 05:24:12;;;;;;;7.57;6.07;;;;;;;21.77;76.26;97522.91;5032527;28;20190;-69
2022/06/22 05:26:40;;;;;;;5.97;5.07;;;;;;;21.83;72.95;97525.19;5033177;28;20206;-69
2022/06/22 05:29:11;;;;;;;9.10;5.23;;;;;;;22.12;69.53;97527.53;5032895;28;20316;-69
2022/06/22 05:31:49;;;;;;;7.47;5.47;;;;;;;22.04;69.34;97531.78;5033198;28;20200;-69
2022/06/22 05:34:22;;;;;;;5.47;4.97;;;;;;;21.92;69.23;97544.22;5032707;28;20286;-69
2022/06/22 05:36:56;;;;;;;5.53;4.97;;;;;;;21.95;69.77;97543.63;5015837;28;20281;-69
2022/06/22 05:39:23;;;;;;;7.70;5.33;;;;;;;21.90;68.89;97546.44;5033231;28;20287;-69
2022/06/22 05:41:50;;;;;;;9.47;5.23;;;;;;;21.97;70.44;97544.13;5032311;28;20724;-69
2022/06/22 05:44:19;;;;;;;8.82;5.82;;;;;;;22.00;70.33;97548.91;5032845;28;20213;-69
2022/06/22 05:46:52;;;;;;;7.10;5.47;;;;;;;22.11;67.26;97550.31;5032539;28;20293;-68
2022/06/22 05:49:20;;;;;;;9.90;5.37;;;;;;;22.09;68.99;97558.72;5031842;28;20230;-69
2022/06/22 05:51:49;;;;;;;9.23;6.07;;;;;;;22.14;69.83;97553.19;5032777;28;20216;-68
2022/06/22 05:54:27;;;;;;;12.13;6.27;;;;;;;22.06;69.40;97555.84;5032878;28;20293;-68
2022/06/22 05:57:22;;;;;;;12.93;6.70;;;;;;;21.85;71.10;97554.66;5032893;28;20197;-68
2022/06/22 05:59:58;;;;;;;8.57;6.20;;;;;;;21.93;71.77;97554.75;5025644;28;20780;-68
2022/06/22 06:02:43;;;;;;;7.33;6.60;;;;;;;21.87;71.48;97549.72;5032918;28;20282;-68
2022/06/22 06:05:15;;;;;;;12.27;6.87;;;;;;;21.85;70.80;97550.06;5032807;28;20276;-68
2022/06/22 06:07:45;;;;;;;9.97;6.67;;;;;;;21.97;70.94;97550.31;5033182;28;20296;-69
2022/06/22 06:10:20;;;;;;;7.40;6.35;;;;;;;22.03;71.83;97564.56;5032519;28;20249;-68
2022/06/22 06:12:53;;;;;;;6.53;5.93;;;;;;;22.02;71.51;97573.78;5032849;28;20190;-69
2022/06/22 06:15:20;;;;;;;9.50;6.07;;;;;;;22.03;71.62;97580.81;5014794;28;20204;-69
2022/06/22 06:17:50;;;;;;;10.10;6.07;;;;;;;21.93;71.88;97570.97;5032196;28;20237;-69
2022/06/22 06:20:31;;;;;;;7.57;6.72;;;;;;;21.96;71.35;97574.97;5016362;28;20192;-69
2022/06/22 06:23:04;;;;;;;7.63;6.60;;;;;;;22.20;70.66;97570.16;5015455;28;20193;-70
2022/06/22 06:28:34;;;;;;;9.43;6.60;;;;;;;22.09;70.84;97585.00;5029940;28;20204;-70
2022/06/22 06:31:07;;;;;;;11.13;6.43;;;;;;;22.05;70.68;97597.53;5029873;28;20708;-70
2022/06/22 06:33:39;;;;;;;6.90;6.20;;;;;;;22.13;70.30;97603.06;5030732;28;20193;-69
2022/06/22 06:36:22;;;;;;;9.70;6.15;;;;;;;22.20;71.95;97597.22;5031252;28;20186;-69
2022/06/22 06:38:55;;;;;;;6.85;6.10;;;;;;;22.19;72.16;97599.13;5030548;28;20727;-69
2022/06/22 06:41:31;;;;;;;6.80;6.05;;;;;;;22.16;70.05;97605.13;5030783;28;20190;-69
2022/06/22 06:44:10;;;;;;;9.40;5.97;;;;;;;22.14;69.46;97610.06;5031403;28;20197;-70
2022/06/22 06:47:03;;;;;;;8.07;5.50;;;;;;;22.19;69.76;97611.84;5034902;28;20641;-69
2022/06/22 06:49:39;;;;;;;6.80;5.55;;;;;;;22.17;68.83;97612.19;5036026;28;20292;-69
2022/06/22 06:52:26;;;;;;;8.95;5.43;;;;;;;22.21;69.33;97615.84;5036735;28;20190;-69
2022/06/22 06:55:04;;;;;;;6.05;5.40;;;;;;;22.20;69.02;97608.06;5036110;28;20661;-69
2022/06/22 06:57:31;;;;;;;6.40;5.68;;;;;;;22.18;70.63;97616.47;5035967;28;20760;-70
2022/06/22 07:00:01;;;;;;;6.97;5.53;;;;;;;22.19;70.70;97617.25;5036056;28;20324;-69
2022/06/22 07:02:32;;;;;;;6.53;5.18;;;;;;;21.98;70.59;97613.41;5036173;28;20194;-69
2022/06/22 07:05:01;;;;;;;6.50;4.95;;;;;;;22.05;70.06;97617.28;5036212;28;20591;-68
2022/06/22 07:07:27;;;;;;;7.35;5.75;;;;;;;21.83;71.31;97614.50;5035554;28;20297;-68
2022/06/22 07:09:58;;;;;;;9.07;5.70;;;;;;;21.62;74.67;97624.06;5035492;28;20264;-68
2022/06/22 07:12:35;;;;;;;10.87;6.30;;;;;;;21.53;77.78;97628.56;5036443;28;20194;-68
2022/06/22 07:15:06;;;;;;;7.30;6.00;;;;;;;21.44;79.92;97629.56;5036128;28;20194;-68
2022/06/22 07:17:33;;;;;;;6.67;6.03;;;;;;;21.51;77.16;97627.28;5036072;28;20212;-69
2022/06/22 07:20:17;;;;;;;9.50;6.70;;;;;;;21.25;81.13;97621.53;5036263;28;20206;-68
2022/06/22 07:22:52;;;;;;;7.83;7.07;;;;;;;21.18;81.02;97623.81;5036348;28;20190;-69
2022/06/22 07:25:25;;;;;;;9.80;6.73;;;;;;;21.31;78.60;97622.25;5036176;28;20285;-68
2022/06/22 07:28:17;;;;;;;8.90;6.57;;;;;;;21.17;85.94;97624.13;5035980;28;20194;-68
2022/06/22 07:30:56;;;;;;;10.13;7.50;;;;;;;21.02;89.87;97629.78;5035446;28;20300;-69
2022/06/22 07:33:33;;;;;;;10.17;7.63;;;;;;;20.98;92.52;97623.38;5035558;28;20186;-69
2022/06/22 07:36:14;;;;;;;9.07;7.60;;;;;;;21.02;91.10;97618.97;5035783;28;20222;-69
2022/06/22 07:38:57;;;;;;;11.80;7.80;;;;;;;21.10;90.06;97607.47;5035162;28;20257;-68
2022/06/22 07:41:26;;;;;;;8.90;7.43;;;;;;;20.93;91.57;97597.22;5017191;28;20724;-68
2022/06/22 07:43:58;;;;;;;8.03;7.17;;;;;;;20.94;91.38;97595.31;5017399;28;20663;-69
2022/06/22 07:46:37;;;;;;;10.17;7.43;;;;;;;21.06;87.33;97582.94;5035302;28;20194;-69
2022/06/22 07:49:11;;;;;;;9.17;7.13;;;;;;;20.97;86.68;97576.59;5034759;28;20257;-69
2022/06/22 07:51:45;;;;;;;11.37;7.20;;;;;;;20.99;86.33;97579.81;5035451;28;20280;-68
2022/06/22 07:54:18;;;;;;;10.77;7.00;;;;;;;21.13;84.82;97575.25;5017676;28;20277;-69
2022/06/22 07:56:52;;;;;;;8.73;7.23;;;;;;;21.12;83.09;97572.84;5034306;28;20277;-69
2022/06/22 07:59:26;;;;;;;7.83;6.90;;;;;;;21.15;83.37;97581.16;5035037;28;20225;-69
2022/06/22 08:01:58;;;;;;;10.90;7.87;;;;;;;21.16;80.59;97582.75;5035252;28;20281;-68
2022/06/22 08:04:34;;;;;;;9.57;6.63;;;;;;;21.06;82.68;97582.13;5035261;28;20280;-69
2022/06/22 08:07:14;;;;;;;7.97;6.80;;;;;;;21.15;81.35;97577.63;5035485;28;20281;-69
2022/06/22 08:09:56;;;;;;;8.73;6.53;;;;;;;21.15;83.33;97589.25;5034629;28;20284;-69
2022/06/22 08:12:29;;;;;;;7.73;6.63;;;;;;;21.23;83.01;97590.47;5034332;28;20186;-69
2022/06/22 08:14:56;;;;;;;7.53;6.80;;;;;;;21.34;81.32;97589.22;5035317;28;20285;-69
2022/06/22 08:17:34;;;;;;;9.17;7.30;;;;;;;21.47;81.98;97599.25;5017110;28;20292;-69
2022/06/22 08:20:00;;;;;;;10.80;7.27;;;;;;;21.53;82.05;97604.22;5034552;28;20186;-69
2022/06/22 08:22:28;;;;;;;8.17;7.07;;;;;;;21.57;85.57;97609.84;5034707;28;20206;-69
2022/06/22 08:24:55;;;;;;;9.17;6.83;;;;;;;21.60;83.54;97598.41;5034570;28;20206;-69
2022/06/22 08:27:24;;;;;;;9.70;7.40;;;;;;;21.61;83.35;97600.81;5034193;28;20699;-69
2022/06/22 08:29:52;;;;;;;9.37;7.03;;;;;;;21.76;78.56;97597.88;5034443;28;20233;-69
2022/06/22 08:32:31;;;;;;;8.13;6.17;;;;;;;21.63;79.63;97600.53;5034730;28;20625;-69
2022/06/22 08:35:05;;;;;;;11.20;6.77;;;;;;;21.64;79.69;97594.00;5034686;28;20190;-69
2022/06/22 08:37:46;;;;;;;9.00;6.40;;;;;;;21.67;79.93;97598.84;5034474;28;20277;-69
2022/06/22 08:40:45;;;;;;;8.20;6.87;;;;;;;21.62;78.04;97596.22;5017004;28;20190;-68
2022/06/22 08:43:28;;;;;;;8.93;7.10;;;;;;;21.66;78.70;97599.94;5017546;28;20206;-69
2022/06/22 08:46:28;;;;;;;7.03;6.07;;;;;;;21.65;79.63;97614.56;5033881;28;20194;-69
2022/06/22 08:49:10;;;;;;;7.40;6.80;;;;;;;21.62;80.21;97607.06;5034074;28;20265;-68
2022/06/22 08:51:37;;;;;;;8.00;7.17;;;;;;;21.64;81.57;97610.25;5016606;28;20201;-68
2022/06/22 08:54:15;;;;;;;7.63;6.70;;;;;;;21.63;81.04;97609.47;5034204;28;20293;-69
2022/06/22 08:56:58;;;;;;;9.97;6.70;;;;;;;21.68;79.67;97603.94;5034429;28;20215;-69
2022/06/22 08:59:24;;;;;;;9.00;6.80;;;;;;;21.77;78.55;97615.72;5033860;28;20253;-68
2022/06/22 09:02:35;;;;;;;8.32;6.80;;;;;;;21.74;79.08;97623.59;5033255;28;20565;-68
2022/06/22 09:05:27;;;;;;;9.63;6.38;;;;;;;21.75;82.51;97627.94;5006131;28;20248;-68
2022/06/22 09:08:14;;;;;;;7.43;6.40;;;;;;;21.77;79.66;97626.53;5033371;28;20226;-68
2022/06/22 09:11:03;;;;;;;10.87;6.33;;;;;;;21.86;78.89;97616.63;5033338;28;20210;-68
2022/06/22 09:13:47;;;;;;;8.23;6.17;;;;;;;21.89;77.93;97624.09;5033149;28;20703;-68
2022/06/22 09:16:51;;;;;;;7.75;5.68;;;;;;;21.94;75.15;97628.63;5032950;28;20720;-68
2022/06/22 09:19:46;;;;;;;9.57;5.85;;;;;;;22.02;72.66;97634.13;5033937;28;20308;-68
2022/06/22 09:22:17;;;;;;;8.50;6.38;;;;;;;22.16;74.76;97634.13;5011184;28;20293;-68
2022/06/22 09:25:17;;;;;;;9.23;6.28;;;;;;;22.06;71.94;97640.53;5032946;28;20299;-68
2022/06/22 09:27:48;;;;;;;6.85;6.00;;;;;;;22.19;72.65;97636.22;5032953;28;20186;-68
2022/06/22 09:30:20;;;;;;;9.32;6.82;;;;;;;22.30;73.36;97634.91;5033253;28;20583;-68
2022/06/22 09:32:49;;;;;;;7.68;6.22;;;;;;;22.39;72.89;97641.22;5033264;28;20287;-68
2022/06/22 09:35:31;;;;;;;8.73;6.50;;;;;;;22.40;72.26;97640.09;5033927;28;20297;-68
2022/06/22 09:38:06;;;;;;;8.30;5.95;;;;;;;22.48;71.93;97645.63;5033048;28;20229;-68
2022/06/22 09:40:48;;;;;;;9.10;6.25;;;;;;;22.50;72.35;97639.91;5032992;28;20205;-68
2022/06/22 09:43:53;;;;;;;7.25;5.97;;;;;;;22.52;74.61;97646.63;5032455;28;20197;-69
2022/06/22 09:46:46;;;;;;;9.80;6.32;;;;;;;22.48;75.15;97637.50;4931859;29;20209;-68
2022/06/22 09:49:22;;;;;;;10.15;6.57;;;;;;;22.49;71.21;97643.72;5011950;28;20789;-68
2022/06/22 09:52:07;;;;;;;14.52;7.35;;;;;;;22.39;70.58;97638.50;5016521;28;20193;-68
2022/06/22 09:58:33;;;;;;;9.13;6.55;;;;;;;22.39;71.27;97638.50;5016905;28;20197;-68
2022/06/22 10:01:15;;;;;;;7.75;6.40;;;;;;;22.41;71.62;97642.50;5016751;28;20233;-68
2022/06/22 10:03:53;;;;;;;9.18;6.35;;;;;;;22.41;71.74;97644.41;5012938;28;20198;-68
2022/06/22 10:06:47;;;;;;;9.45;6.18;;;;;;;22.47;72.43;97651.38;5030079;28;20201;-68
2022/06/22 10:09:34;;;;;;;16.17;7.05;;;;;;;22.34;71.06;97652.16;5032963;28;20272;-69
2022/06/22 10:12:32;;;;;;;9.40;6.70;;;;;;;22.34;71.13;97655.66;5030359;28;20621;-69
2022/06/22 10:15:01;;;;;;;10.30;6.55;;;;;;;22.32;72.76;97648.94;5030711;28;20202;-69
2022/06/22 10:17:46;;;;;;;11.18;7.25;;;;;;;22.32;71.16;97649.75;5031411;28;20291;-69
2022/06/22 10:20:21;;;;;;;10.82;7.53;;;;;;;22.30;72.03;97656.56;5032663;28;20271;-68
2022/06/22 10:23:06;;;;;;;8.45;6.93;;;;;;;22.25;72.71;97656.69;5035367;28;20251;-69
2022/06/22 10:25:49;;;;;;;12.50;7.47;;;;;;;22.20;72.60;97659.50;5034282;28;20229;-69
2022/06/22 10:28:38;;;;;;;11.03;7.03;;;;;;;22.17;74.88;97668.22;5017666;28;20265;-68
2022/06/22 10:31:43;;;;;;;10.75;7.45;;;;;;;22.17;74.64;97669.03;4984353;28;20233;-69
2022/06/22 10:34:25;;;;;;;7.57;6.85;;;;;;;22.12;76.23;97687.28;5021406;28;20205;-68
2022/06/22 10:37:23;;;;;;;7.82;7.03;;;;;;;22.04;79.56;97686.09;5032016;28;20577;-68
2022/06/22 10:40:12;;;;;;;9.30;7.15;;;;;;;22.00;81.04;97689.69;4992533;28;20213;-68
2022/06/22 10:46:21;;;;;;;7.73;7.03;;;;;;;21.96;84.41;97697.59;5026025;28;20193;-69
2022/06/22 10:49:25;;;;;;;8.50;6.53;;;;;;;22.07;82.18;97690.09;5035727;28;20242;-68
2022/06/22 10:51:54;;;;;;;9.77;7.03;;;;;;;22.12;84.85;97693.47;4974790;28;20208;-69
2022/06/22 10:54:41;;;;;;;9.55;7.80;;;;;;;22.16;82.28;97699.13;5025647;28;20576;-68
2022/06/22 10:57:25;;;;;;;8.30;6.95;;;;;;;21.96;85.11;97699.50;5036263;28;20212;-69
2022/06/22 11:00:03;;;;;;;9.00;7.93;;;;;;;21.84;85.93;97701.91;5035801;28;20260;-69
2022/06/22 11:03:08;;;;;;;9.80;7.97;;;;;;;21.69;91.21;97699.44;5019106;28;20251;-69
2022/06/22 11:05:38;;;;;;;10.65;9.48;;;;;;;21.56;95.42;97703.72;5035419;28;20596;-69
2022/06/22 11:08:22;;;;;;;9.60;8.60;;;;;;;21.39;93.88;97708.09;5035727;28;20228;-68
2022/06/22 11:11:11;;;;;;;9.30;8.50;;;;;;;21.52;94.95;97710.03;5035174;28;20727;-69
2022/06/22 11:13:59;;;;;;;12.20;8.63;;;;;;;21.45;93.20;97709.59;5018574;28;20229;-69
2022/06/22 11:16:49;;;;;;;10.07;8.10;;;;;;;21.36;92.28;97711.38;5035819;28;20491;-69
2022/06/22 11:19:39;;;;;;;8.17;7.30;;;;;;;21.29;92.54;97717.16;5035554;28;20701;-69
2022/06/22 11:22:24;;;;;;;8.17;7.40;;;;;;;21.28;88.51;97720.16;5035643;28;20221;-69
2022/06/22 11:25:08;;;;;;;7.93;7.10;;;;;;;21.29;87.98;97721.78;5035782;28;20193;-69
2022/06/22 11:31:00;;;;;;;7.33;6.60;;;;;;;21.39;92.46;97727.81;5035329;28;20205;-69
2022/06/22 11:34:03;;;;;;;8.90;7.57;;;;;;;21.42;93.00;97721.00;5035111;28;20201;-69
2022/06/22 11:36:39;;;;;;;7.17;6.13;;;;;;;21.47;88.78;97721.72;5035342;28;20233;-70
2022/06/22 11:39:18;;;;;;;6.57;5.93;;;;;;;21.53;87.78;97717.84;5035182;28;20257;-69
2022/06/22 11:41:49;;;;;;;8.10;5.60;;;;;;;21.68;86.64;97727.59;5017639;28;20190;-69
2022/06/22 11:44:43;;;;;;;7.87;5.87;;;;;;;21.78;88.31;97722.03;5034998;28;20190;-69
2022/06/22 11:47:20;;;;;;;8.80;5.57;;;;;;;21.81;88.27;97721.44;5035374;28;20194;-69
2022/06/22 11:50:01;;;;;;;7.88;5.50;;;;;;;21.77;88.51;97726.66;5017245;28;20778;-69
2022/06/22 11:52:36;;;;;;;9.68;5.72;;;;;;;21.81;89.58;97726.84;5034940;28;20248;-69
2022/06/22 11:55:22;;;;;;;13.52;5.85;;;;;;;21.75;88.94;97722.66;5034658;28;20259;-69
2022/06/22 11:58:16;;;;;;;8.67;5.40;;;;;;;21.73;89.73;97717.53;5034605;28;20244;-69
2022/06/22 12:01:10;;;;;;;12.07;6.13;;;;;;;21.78;90.33;97725.56;5034522;28;20182;-69
2022/06/22 12:03:39;;;;;;;8.88;5.65;;;;;;;21.79;88.15;97715.53;5034836;28;20638;-69
2022/06/22 12:06:18;;;;;;;8.13;5.50;;;;;;;21.90;88.73;97719.66;5034780;28;20206;-69
2022/06/22 12:09:09;;;;;;;6.13;4.75;;;;;;;21.86;84.61;97713.22;5016880;28;20226;-69
2022/06/22 12:12:04;;;;;;;6.65;5.22;;;;;;;21.87;86.33;97706.72;5034611;28;20210;-69
2022/06/22 12:17:35;;;;;;;8.32;5.72;;;;;;;22.28;81.58;97681.25;5034542;28;20181;-69
2022/06/22 12:20:11;;;;;;;6.80;5.40;;;;;;;22.41;81.63;97685.03;5034529;28;20699;-69
2022/06/22 12:22:52;;;;;;;7.30;6.13;;;;;;;22.18;84.89;97686.88;5034647;28;20209;-69
2022/06/22 12:25:38;;;;;;;7.80;6.25;;;;;;;22.15;86.36;97687.47;5035043;28;20233;-69
2022/06/22 12:28:05;;;;;;;9.48;6.20;;;;;;;22.07;85.42;97695.50;5034357;28;20276;-69
2022/06/22 12:30:53;;;;;;;6.85;6.10;;;;;;;22.08;89.07;97686.28;5034497;28;20243;-69
2022/06/22 12:33:26;;;;;;;8.85;6.78;;;;;;;22.08;92.54;97689.78;5034411;28;20263;-69
2022/06/22 12:36:17;;;;;;;8.48;6.38;;;;;;;22.13;88.09;97678.88;5016959;28;20244;-69
2022/06/22 12:38:47;;;;;;;9.80;7.10;;;;;;;22.27;88.43;97666.13;5020083;28;20628;-69
2022/06/22 12:41:39;;;;;;;8.52;6.95;;;;;;;22.11;91.00;97658.59;5033590;28;20189;-70
2022/06/22 12:44:39;;;;;;;9.15;6.88;;;;;;;22.20;89.02;97664.91;5033096;28;20190;-69
2022/06/22 12:47:31;;;;;;;9.23;6.20;;;;;;;21.98;88.18;97678.34;5033908;28;20260;-69